YRLOC EDDL-EDLW
Flight info
| Callsign | YRLOC |
|---|---|
| Flight time | 0h 21m |
| Altitude | 2000 |
| Route | BAM |
| Aircraft | PA24/L-SDGRY/S |
Departure
| Time | 2026-04-30 20:48 |
|---|---|
| Airport | Düsseldorf Airport (EDDL) |
Arrival
| Time | 2026-04-30 21:09 |
|---|---|
| Airport | Dortmund Airport (EDLW) |
| Time | Latitude | Longitude | Altitude | Speed | Heading |
|---|---|---|---|---|---|
| 2026-04-30 20:29 | 51.27650 | 6.75238 | 116 ft | 0 kts | 242° |
| 2026-04-30 20:33 | 51.27649 | 6.75232 | 116 ft | 0 kts | 242° |
| 2026-04-30 20:44 | 51.27664 | 6.75187 | 115 ft | 5 kts | 5° |
| 2026-04-30 20:45 | 51.27777 | 6.75284 | 118 ft | 10 kts | 52° |
| 2026-04-30 20:45 | 51.27825 | 6.75355 | 120 ft | 7 kts | 6° |
| 2026-04-30 20:45 | 51.27856 | 6.75337 | 119 ft | 0 kts | 333° |
| 2026-04-30 20:47 | 51.27943 | 6.75271 | 119 ft | 11 kts | 348° |
| 2026-04-30 20:47 | 51.28038 | 6.75356 | 120 ft | 37 kts | 53° |
| 2026-04-30 20:48 | 51.28662 | 6.76934 | 531 ft | 102 kts | 70° |
| 2026-04-30 20:48 | 51.28785 | 6.78068 | 913 ft | 108 kts | 85° |
| 2026-04-30 20:48 | 51.28734 | 6.79331 | 1213 ft | 116 kts | 100° |
| 2026-04-30 20:48 | 51.28567 | 6.80606 | 1395 ft | 119 kts | 103° |
| 2026-04-30 20:49 | 51.28289 | 6.81841 | 1610 ft | 119 kts | 118° |
| 2026-04-30 20:49 | 51.27865 | 6.82987 | 1763 ft | 122 kts | 125° |
| 2026-04-30 20:49 | 51.27368 | 6.84131 | 1846 ft | 130 kts | 129° |
| 2026-04-30 20:50 | 51.26143 | 6.86405 | 1902 ft | 142 kts | 136° |
| 2026-04-30 20:50 | 51.25427 | 6.87508 | 1897 ft | 146 kts | 141° |
| 2026-04-30 20:50 | 51.24623 | 6.88530 | 1867 ft | 148 kts | 147° |
| 2026-04-30 20:50 | 51.23768 | 6.89460 | 1862 ft | 148 kts | 150° |
| 2026-04-30 20:51 | 51.22886 | 6.90332 | 1848 ft | 148 kts | 153° |
| 2026-04-30 20:51 | 51.21072 | 6.91841 | 1847 ft | 147 kts | 158° |
| 2026-04-30 20:51 | 51.20148 | 6.92504 | 1845 ft | 147 kts | 160° |
| 2026-04-30 20:52 | 51.19212 | 6.93160 | 1847 ft | 146 kts | 154° |
| 2026-04-30 20:52 | 51.18494 | 6.94237 | 1935 ft | 142 kts | 122° |
| 2026-04-30 20:52 | 51.18861 | 6.97052 | 2013 ft | 142 kts | 34° |
| 2026-04-30 20:53 | 51.19727 | 6.97752 | 2101 ft | 138 kts | 19° |
| 2026-04-30 20:53 | 51.20631 | 6.98250 | 2155 ft | 137 kts | 13° |
| 2026-04-30 20:53 | 51.21536 | 6.98741 | 2220 ft | 137 kts | 16° |
| 2026-04-30 20:54 | 51.23327 | 6.99804 | 2291 ft | 138 kts | 17° |
| 2026-04-30 20:54 | 51.24208 | 7.00428 | 2283 ft | 138 kts | 26° |
| 2026-04-30 20:54 | 51.25007 | 7.01265 | 2320 ft | 136 kts | 34° |
| 2026-04-30 20:55 | 51.26431 | 7.03234 | 2396 ft | 135 kts | 42° |
| 2026-04-30 20:55 | 51.27075 | 7.04338 | 2448 ft | 134 kts | 44° |
| 2026-04-30 20:55 | 51.27673 | 7.05468 | 2512 ft | 132 kts | 50° |
| 2026-04-30 20:56 | 51.28698 | 7.07886 | 2622 ft | 132 kts | 57° |
| 2026-04-30 20:56 | 51.29129 | 7.09181 | 2679 ft | 132 kts | 61° |
| 2026-04-30 20:56 | 51.29926 | 7.11879 | 2856 ft | 134 kts | 64° |
| 2026-04-30 20:57 | 51.30343 | 7.13229 | 2939 ft | 136 kts | 59° |
| 2026-04-30 20:57 | 51.30811 | 7.14520 | 3050 ft | 135 kts | 53° |
| 2026-04-30 20:57 | 51.31368 | 7.15733 | 3129 ft | 135 kts | 51° |
| 2026-04-30 20:58 | 51.32396 | 7.18219 | 3307 ft | 135 kts | 58° |
| 2026-04-30 20:58 | 51.32804 | 7.19579 | 3376 ft | 137 kts | 69° |
| 2026-04-30 20:58 | 51.33033 | 7.21065 | 3462 ft | 137 kts | 77° |
| 2026-04-30 20:58 | 51.33191 | 7.22561 | 3550 ft | 137 kts | 81° |
| 2026-04-30 20:59 | 51.33426 | 7.25584 | 3695 ft | 138 kts | 91° |
| 2026-04-30 20:59 | 51.33592 | 7.27107 | 3720 ft | 142 kts | 73° |
| 2026-04-30 21:00 | 51.34208 | 7.30176 | 3701 ft | 147 kts | 70° |
| 2026-04-30 21:00 | 51.34840 | 7.33306 | 3721 ft | 149 kts | 70° |
| 2026-04-30 21:01 | 51.35515 | 7.36476 | 3728 ft | 150 kts | 67° |
| 2026-04-30 21:01 | 51.35913 | 7.38019 | 3737 ft | 149 kts | 65° |
| 2026-04-30 21:01 | 51.36721 | 7.41077 | 3591 ft | 150 kts | 65° |
| 2026-04-30 21:02 | 51.37153 | 7.42599 | 3542 ft | 149 kts | 62° |
| 2026-04-30 21:02 | 51.37626 | 7.44060 | 3467 ft | 150 kts | 60° |
| 2026-04-30 21:02 | 51.38110 | 7.45536 | 3384 ft | 149 kts | 60° |
| 2026-04-30 21:02 | 51.38597 | 7.47000 | 3322 ft | 149 kts | 60° |
| 2026-04-30 21:03 | 51.39092 | 7.48478 | 3162 ft | 152 kts | 60° |
| 2026-04-30 21:03 | 51.39582 | 7.49948 | 3030 ft | 150 kts | 60° |
| 2026-04-30 21:03 | 51.40063 | 7.51455 | 2863 ft | 152 kts | 62° |
| 2026-04-30 21:03 | 51.40500 | 7.53005 | 2733 ft | 151 kts | 65° |
| 2026-04-30 21:04 | 51.40892 | 7.54547 | 2589 ft | 151 kts | 66° |
| 2026-04-30 21:04 | 51.41307 | 7.56100 | 2455 ft | 151 kts | 63° |
| 2026-04-30 21:04 | 51.42239 | 7.59084 | 2227 ft | 148 kts | 60° |
| 2026-04-30 21:05 | 51.42737 | 7.60512 | 2174 ft | 145 kts | 57° |
| 2026-04-30 21:05 | 51.43269 | 7.61866 | 2136 ft | 142 kts | 54° |
| 2026-04-30 21:05 | 51.43863 | 7.63127 | 2073 ft | 141 kts | 45° |
| 2026-04-30 21:05 | 51.44628 | 7.64086 | 2036 ft | 138 kts | 23° |
| 2026-04-30 21:06 | 51.45535 | 7.64392 | 1997 ft | 134 kts | 355° |
| 2026-04-30 21:06 | 51.46427 | 7.64119 | 1972 ft | 128 kts | 341° |
| 2026-04-30 21:06 | 51.47259 | 7.63653 | 1934 ft | 126 kts | 329° |
| 2026-04-30 21:06 | 51.47886 | 7.62751 | 1770 ft | 121 kts | 304° |
| 2026-04-30 21:07 | 51.48360 | 7.61681 | 1627 ft | 113 kts | 301° |
| 2026-04-30 21:07 | 51.48744 | 7.60689 | 1464 ft | 101 kts | 299° |
| 2026-04-30 21:07 | 51.49107 | 7.59804 | 1342 ft | 90 kts | 303° |
| 2026-04-30 21:07 | 51.49494 | 7.59035 | 1231 ft | 88 kts | 308° |
| 2026-04-30 21:08 | 51.50011 | 7.58536 | 1113 ft | 90 kts | 343° |
| 2026-04-30 21:08 | 51.50642 | 7.58630 | 922 ft | 95 kts | 15° |
| 2026-04-30 21:08 | 51.51172 | 7.59243 | 718 ft | 95 kts | 51° |
| 2026-04-30 21:08 | 51.51474 | 7.60170 | 534 ft | 92 kts | 58° |
| 2026-04-30 21:09 | 51.51773 | 7.61036 | 431 ft | 83 kts | 59° |
| 2026-04-30 21:09 | 51.52011 | 7.61724 | 411 ft | 56 kts | 60° |
| 2026-04-30 21:09 | 51.52161 | 7.62153 | 412 ft | 35 kts | 61° |
| 2026-04-30 21:09 | 51.52184 | 7.62317 | 413 ft | 7 kts | 156° |
| 2026-04-30 21:10 | 51.52127 | 7.62366 | 412 ft | 8 kts | 147° |
| 2026-04-30 21:10 | 51.52109 | 7.62383 | 412 ft | 1 kts | 151° |
| 2026-04-30 21:10 | 51.52106 | 7.62386 | 412 ft | 1 kts | 152° |
| 2026-04-30 21:10 | 51.52097 | 7.62393 | 411 ft | 6 kts | 153° |
| 2026-04-30 21:11 | 51.52041 | 7.62354 | 410 ft | 12 kts | 242° |
| 2026-04-30 21:11 | 51.52000 | 7.62247 | 411 ft | 11 kts | 241° |
| 2026-04-30 21:11 | 51.51954 | 7.62112 | 412 ft | 19 kts | 242° |
| 2026-04-30 21:11 | 51.51879 | 7.61895 | 413 ft | 24 kts | 242° |
| 2026-04-30 21:12 | 51.51800 | 7.61674 | 419 ft | 22 kts | 240° |
| 2026-04-30 21:12 | 51.51719 | 7.61442 | 426 ft | 27 kts | 241° |
| 2026-04-30 21:12 | 51.51631 | 7.61188 | 424 ft | 21 kts | 239° |
| 2026-04-30 21:12 | 51.51564 | 7.61065 | 428 ft | 10 kts | 191° |
| 2026-04-30 21:13 | 51.51503 | 7.61032 | 424 ft | 10 kts | 240° |
| 2026-04-30 21:13 | 51.51469 | 7.60932 | 428 ft | 11 kts | 240° |
| 2026-04-30 21:13 | 51.51421 | 7.60805 | 428 ft | 16 kts | 241° |
| 2026-04-30 21:13 | 51.51363 | 7.60639 | 435 ft | 15 kts | 240° |
| 2026-04-30 21:14 | 51.51318 | 7.60511 | 436 ft | 15 kts | 239° |
| 2026-04-30 21:14 | 51.51261 | 7.60350 | 441 ft | 15 kts | 240° |
| 2026-04-30 21:14 | 51.51213 | 7.60210 | 434 ft | 14 kts | 240° |
| 2026-04-30 21:14 | 51.51158 | 7.60195 | 441 ft | 10 kts | 94° |
| 2026-04-30 21:15 | 51.51194 | 7.60299 | 437 ft | 9 kts | 60° |
| 2026-04-30 21:15 | 51.51217 | 7.60361 | 443 ft | 7 kts | 59° |
| 2026-04-30 21:15 | 51.51246 | 7.60447 | 439 ft | 8 kts | 83° |
| 2026-04-30 21:15 | 51.51238 | 7.60502 | 439 ft | 3 kts | 98° |
| 2026-04-30 21:16 | 51.51237 | 7.60520 | 438 ft | 0 kts | 97° |